createdAt,value
2024-02-18T00:00:10.641Z,92.50
2024-02-18T00:01:10.723Z,92.50
2024-02-18T00:02:10.620Z,92.50
2024-02-18T00:03:10.633Z,92.50
2024-02-18T00:04:10.645Z,92.50
2024-02-18T00:05:10.640Z,92.60
2024-02-18T00:06:10.626Z,92.50
2024-02-18T00:07:10.558Z,92.50
2024-02-18T00:08:10.569Z,92.50
2024-02-18T00:09:10.540Z,92.50
2024-02-18T00:10:10.596Z,92.50
2024-02-18T00:11:10.540Z,92.50
2024-02-18T00:12:10.501Z,92.50
2024-02-18T00:13:10.539Z,92.50
2024-02-18T00:14:10.648Z,92.50
2024-02-18T00:15:10.468Z,92.50
2024-02-18T00:16:10.464Z,92.50
2024-02-18T00:17:10.438Z,92.40
2024-02-18T00:18:10.505Z,92.40
2024-02-18T00:19:10.568Z,92.50
2024-02-18T00:20:10.501Z,92.50
2024-02-18T00:21:10.395Z,92.50
2024-02-18T00:22:10.433Z,92.50
2024-02-18T00:23:10.360Z,92.50
2024-02-18T00:24:10.390Z,92.50
2024-02-18T00:25:10.432Z,92.50
2024-02-18T00:26:10.340Z,92.50
2024-02-18T00:27:10.324Z,92.60
2024-02-18T00:28:10.358Z,92.50
2024-02-18T00:29:10.327Z,92.40
2024-02-18T00:30:10.327Z,92.40
2024-02-18T00:31:10.276Z,92.40
2024-02-18T00:32:10.282Z,92.30
2024-02-18T00:33:10.312Z,92.30
2024-02-18T00:34:10.315Z,92.30
2024-02-18T00:35:10.319Z,92.10
2024-02-18T00:36:10.243Z,91.99
2024-02-18T00:37:10.269Z,91.99
2024-02-18T00:38:10.203Z,91.99
2024-02-18T00:39:10.185Z,91.99
2024-02-18T00:40:10.338Z,91.95
2024-02-18T00:41:10.180Z,91.99
2024-02-18T00:42:10.177Z,91.78
2024-02-18T00:43:10.169Z,91.74
2024-02-18T00:44:10.147Z,91.64
2024-02-18T00:45:10.125Z,91.58
2024-02-18T00:46:18.237Z,91.54
2024-02-18T00:47:11.141Z,91.54
2024-02-18T00:48:10.212Z,91.44
2024-02-18T00:49:10.187Z,91.44
2024-02-18T00:50:10.063Z,91.44
2024-02-18T00:51:10.053Z,91.44
2024-02-18T00:52:10.073Z,91.44
2024-02-18T00:53:10.051Z,91.44
2024-02-18T00:54:10.023Z,91.33
2024-02-18T00:55:10.178Z,91.23
2024-02-18T00:56:10.008Z,91.13
2024-02-18T00:57:09.993Z,91.13
2024-02-18T00:58:10.051Z,91.03
2024-02-18T00:59:09.959Z,91.03
2024-02-18T01:00:09.976Z,91.03
2024-02-18T01:01:17.115Z,90.92
2024-02-18T01:02:09.924Z,90.92
2024-02-18T01:03:09.947Z,90.92
2024-02-18T01:04:10.039Z,90.82
2024-02-18T01:05:10.104Z,90.82
2024-02-18T01:06:09.920Z,90.72
2024-02-18T01:07:09.948Z,90.62
2024-02-18T01:08:09.873Z,90.52
2024-02-18T01:09:09.832Z,90.62
2024-02-18T01:10:09.918Z,90.62
2024-02-18T01:11:09.877Z,90.62
2024-02-18T01:12:09.806Z,90.62
2024-02-18T01:13:09.798Z,90.72
2024-02-18T01:14:09.787Z,90.62
2024-02-18T01:15:09.788Z,90.62
2024-02-18T01:16:09.878Z,90.62
2024-02-18T01:17:09.746Z,90.62
2024-02-18T01:18:09.934Z,90.62
2024-02-18T01:19:09.939Z,90.62
2024-02-18T01:20:09.777Z,90.62
2024-02-18T01:21:09.705Z,90.52
2024-02-18T01:22:09.755Z,90.41
2024-02-18T01:23:09.694Z,90.31
2024-02-18T01:24:09.671Z,90.21
2024-02-18T01:25:09.832Z,90.11
2024-02-18T01:26:09.643Z,90.00
2024-02-18T01:27:09.670Z,89.90
2024-02-18T01:28:09.649Z,89.90
2024-02-18T01:29:09.634Z,89.90
2024-02-18T01:30:09.614Z,89.90
2024-02-18T01:31:09.661Z,89.90
2024-02-18T01:32:09.606Z,89.80
2024-02-18T01:33:09.615Z,89.80
2024-02-18T01:34:09.700Z,89.70
2024-02-18T01:35:09.598Z,89.70
2024-02-18T01:36:09.525Z,89.59
2024-02-18T01:37:09.597Z,89.59
2024-02-18T01:38:09.505Z,89.59
2024-02-18T01:39:09.520Z,89.59
2024-02-18T01:40:09.721Z,89.59
2024-02-18T01:41:09.486Z,89.70
2024-02-18T01:42:09.477Z,89.70
2024-02-18T01:43:09.537Z,89.70
2024-02-18T01:44:09.480Z,89.70
2024-02-18T01:45:09.460Z,89.70
2024-02-18T01:46:09.581Z,89.70
2024-02-18T01:47:09.420Z,89.59
2024-02-18T01:48:09.611Z,89.59
2024-02-18T01:49:09.603Z,89.59
2024-02-18T01:50:09.591Z,89.59
2024-02-18T01:51:09.374Z,89.50
2024-02-18T01:52:09.338Z,89.50
2024-02-18T01:53:09.361Z,89.59
2024-02-18T01:54:09.335Z,89.59
2024-02-18T01:55:09.407Z,89.59
2024-02-18T01:56:09.320Z,89.59
2024-02-18T01:57:09.300Z,89.59
2024-02-18T01:58:09.286Z,89.59
2024-02-18T01:59:09.284Z,89.59
2024-02-18T02:00:09.265Z,89.59
2024-02-18T02:01:09.374Z,89.59
2024-02-18T02:02:09.273Z,89.70
2024-02-18T02:03:09.444Z,89.59
2024-02-18T02:04:09.301Z,89.59
2024-02-18T02:05:09.234Z,89.50
2024-02-18T02:06:09.317Z,89.50
2024-02-18T02:07:09.365Z,89.50
2024-02-18T02:08:09.164Z,89.59
2024-02-18T02:09:09.159Z,89.50
2024-02-18T02:10:09.161Z,89.59
2024-02-18T02:11:09.224Z,89.50
2024-02-18T02:12:09.128Z,89.39
2024-02-18T02:13:09.157Z,89.39
2024-02-18T02:14:09.101Z,89.50
2024-02-18T02:15:09.130Z,89.50
2024-02-18T02:16:09.130Z,89.39
2024-02-18T02:17:09.077Z,89.50
2024-02-18T02:18:09.122Z,89.29
2024-02-18T02:19:09.088Z,89.29
2024-02-18T02:20:09.093Z,89.29
2024-02-18T02:21:09.019Z,89.29
2024-02-18T02:22:09.069Z,89.29
2024-02-18T02:23:09.025Z,89.29
2024-02-18T02:24:08.992Z,89.29
2024-02-18T02:25:09.033Z,89.09
2024-02-18T02:26:08.960Z,88.98
2024-02-18T02:27:08.968Z,88.98
2024-02-18T02:28:09.000Z,88.88
2024-02-18T02:29:08.935Z,88.88
2024-02-18T02:30:08.907Z,88.88
2024-02-18T02:31:09.005Z,88.78
2024-02-18T02:32:08.898Z,88.78
2024-02-18T02:33:08.941Z,88.78
2024-02-18T02:34:09.028Z,88.82
2024-02-18T02:35:08.930Z,88.92
2024-02-18T02:36:08.846Z,88.92
2024-02-18T02:37:08.865Z,88.92
2024-02-18T02:38:08.819Z,88.92
2024-02-18T02:39:08.843Z,88.92
2024-02-18T02:40:08.837Z,88.82
2024-02-18T02:41:08.815Z,88.92
2024-02-18T02:42:08.781Z,88.92
2024-02-18T02:43:08.914Z,88.92
2024-02-18T02:44:08.755Z,88.92
2024-02-18T02:45:08.754Z,88.82
2024-02-18T02:46:08.811Z,88.92
2024-02-18T02:47:08.736Z,88.82
2024-02-18T02:48:08.795Z,88.92
2024-02-18T02:49:08.787Z,88.92
2024-02-18T02:50:08.726Z,89.03
2024-02-18T02:51:08.697Z,89.03
2024-02-18T02:52:08.711Z,89.03
2024-02-18T02:53:08.659Z,89.03
2024-02-18T02:54:08.654Z,89.03
2024-02-18T02:55:08.692Z,89.03
2024-02-18T02:56:08.633Z,89.03
2024-02-18T02:57:08.622Z,89.12
2024-02-18T02:58:08.639Z,89.03
2024-02-18T02:59:08.596Z,89.12
2024-02-18T03:00:08.582Z,89.03
2024-02-18T03:01:08.619Z,88.92
2024-02-18T03:02:08.568Z,88.92
2024-02-18T03:03:08.564Z,88.92
2024-02-18T03:04:08.651Z,88.86
2024-02-18T03:05:08.543Z,88.86
2024-02-18T03:06:08.618Z,88.96
2024-02-18T03:07:08.574Z,88.96
2024-02-18T03:08:08.486Z,88.96
2024-02-18T03:09:08.483Z,88.86
2024-02-18T03:10:08.638Z,88.76
2024-02-18T03:11:08.455Z,88.86
2024-02-18T03:12:08.453Z,88.76
2024-02-18T03:13:08.537Z,88.76
2024-02-18T03:14:08.426Z,88.76
2024-02-18T03:15:08.405Z,88.86
2024-02-18T03:16:08.435Z,88.86
2024-02-18T03:17:08.382Z,88.86
2024-02-18T03:18:08.413Z,88.96
2024-02-18T03:19:08.462Z,88.96
2024-02-18T03:20:08.773Z,89.17
2024-02-18T03:21:08.385Z,89.06
2024-02-18T03:22:08.421Z,89.06
2024-02-18T03:23:08.366Z,89.06
2024-02-18T03:24:08.301Z,89.06
2024-02-18T03:25:08.401Z,88.96
2024-02-18T03:26:08.296Z,88.96
2024-02-18T03:27:08.279Z,88.96
2024-02-18T03:28:08.296Z,88.96
2024-02-18T03:29:08.257Z,88.86
2024-02-18T03:30:08.367Z,88.86
2024-02-18T03:31:08.268Z,88.76
2024-02-18T03:32:08.234Z,88.86
2024-02-18T03:33:08.277Z,88.86
2024-02-18T03:34:08.361Z,88.76
2024-02-18T03:35:08.453Z,88.76
2024-02-18T03:36:08.196Z,88.76
2024-02-18T03:37:08.195Z,88.76
2024-02-18T03:38:08.174Z,88.65
2024-02-18T03:39:08.162Z,88.65
2024-02-18T03:40:08.287Z,88.56
2024-02-18T03:41:08.221Z,88.65
2024-02-18T03:42:08.583Z,88.65
2024-02-18T03:43:08.219Z,88.56
2024-02-18T03:44:08.175Z,88.56
2024-02-18T03:45:08.074Z,88.56
2024-02-18T03:46:08.142Z,88.45
2024-02-18T03:47:08.197Z,88.35
2024-02-18T03:48:08.103Z,88.35
2024-02-18T03:49:08.082Z,88.35
2024-02-18T03:50:08.349Z,88.35
2024-02-18T03:51:08.018Z,88.45
2024-02-18T03:52:08.083Z,88.45
2024-02-18T03:53:08.007Z,88.45
2024-02-18T03:54:07.967Z,88.24
2024-02-18T03:55:08.025Z,88.24
2024-02-18T03:56:11.402Z,88.24
2024-02-18T03:57:07.933Z,88.35
2024-02-18T03:58:08.013Z,88.35
2024-02-18T03:59:07.940Z,88.45
2024-02-18T04:00:07.892Z,88.45
2024-02-18T04:01:07.996Z,88.35
2024-02-18T04:02:07.870Z,88.45
2024-02-18T04:03:07.880Z,88.45
2024-02-18T04:04:07.934Z,88.45
2024-02-18T04:05:07.970Z,88.45
2024-02-18T04:06:07.892Z,88.35
2024-02-18T04:07:07.962Z,88.24
2024-02-18T04:08:07.794Z,88.35
2024-02-18T04:09:07.826Z,88.39
2024-02-18T04:10:07.891Z,88.39
2024-02-18T04:11:07.769Z,88.29
2024-02-18T04:12:07.757Z,88.18
2024-02-18T04:13:07.799Z,88.18
2024-02-18T04:14:07.734Z,87.98
2024-02-18T04:15:07.756Z,88.08
2024-02-18T04:16:07.777Z,88.08
2024-02-18T04:17:07.705Z,88.08
2024-02-18T04:18:07.843Z,88.08
2024-02-18T04:19:07.896Z,88.08
2024-02-18T04:20:07.694Z,88.08
2024-02-18T04:21:20.172Z,88.08
2024-02-18T04:22:07.688Z,87.98
2024-02-18T04:23:07.638Z,87.98
2024-02-18T04:24:07.650Z,87.88
2024-02-18T04:25:07.671Z,87.88
2024-02-18T04:26:07.649Z,87.88
2024-02-18T04:27:07.631Z,87.88
2024-02-18T04:28:07.687Z,87.88
2024-02-18T04:29:07.562Z,87.88
2024-02-18T04:30:07.587Z,87.88
2024-02-18T04:31:07.583Z,87.77
2024-02-18T04:32:07.540Z,87.77
2024-02-18T04:33:07.614Z,87.67
2024-02-18T04:34:07.629Z,87.67
2024-02-18T04:35:07.619Z,87.67
2024-02-18T04:36:07.495Z,87.47
2024-02-18T04:37:07.559Z,87.47
2024-02-18T04:38:07.476Z,87.47
2024-02-18T04:39:07.451Z,87.37
2024-02-18T04:40:07.473Z,87.26
2024-02-18T04:41:07.423Z,87.26
2024-02-18T04:42:07.415Z,87.16
2024-02-18T04:43:07.473Z,87.06
2024-02-18T04:44:07.399Z,86.96
2024-02-18T04:45:07.391Z,86.96
2024-02-18T04:46:07.414Z,86.96
2024-02-18T04:47:07.388Z,86.96
2024-02-18T04:48:07.431Z,86.96
2024-02-18T04:49:07.385Z,86.75
2024-02-18T04:50:07.316Z,86.65
2024-02-18T04:51:07.317Z,86.75
2024-02-18T04:52:07.385Z,86.75
2024-02-18T04:53:07.301Z,86.75
2024-02-18T04:54:07.280Z,86.75
2024-02-18T04:55:07.314Z,86.65
2024-02-18T04:56:07.250Z,86.65
2024-02-18T04:57:07.267Z,86.65
2024-02-18T04:58:07.285Z,86.44
2024-02-18T04:59:07.220Z,86.34
2024-02-18T05:00:07.333Z,86.24
2024-02-18T05:01:07.245Z,86.34
2024-02-18T05:02:07.202Z,86.34
2024-02-18T05:03:07.205Z,86.34
2024-02-18T05:04:07.218Z,86.44
2024-02-18T05:05:07.227Z,86.55
2024-02-18T05:06:07.198Z,86.34
2024-02-18T05:07:07.187Z,86.24
2024-02-18T05:08:07.116Z,86.04
2024-02-18T05:09:07.123Z,86.04
2024-02-18T05:10:07.145Z,85.83
2024-02-18T05:11:07.085Z,85.63
2024-02-18T05:12:07.091Z,85.63
2024-02-18T05:13:07.311Z,85.52
2024-02-18T05:14:07.045Z,85.31
2024-02-18T05:15:07.043Z,85.11
2024-02-18T05:16:07.060Z,85.22
2024-02-18T05:17:07.032Z,85.01
2024-02-18T05:18:07.104Z,84.91
2024-02-18T05:19:07.125Z,84.91
2024-02-18T05:20:06.976Z,84.91
2024-02-18T05:21:06.988Z,85.01
2024-02-18T05:22:07.023Z,85.01
2024-02-18T05:23:06.961Z,84.91
2024-02-18T05:24:06.933Z,84.70
2024-02-18T05:25:06.969Z,84.60
2024-02-18T05:26:06.918Z,84.50
2024-02-18T05:27:06.903Z,84.50
2024-02-18T05:28:06.979Z,84.60
2024-02-18T05:29:06.886Z,84.50
2024-02-18T05:30:06.864Z,84.29
2024-02-18T05:31:06.959Z,84.19
2024-02-18T05:32:06.854Z,84.29
2024-02-18T05:33:06.915Z,84.19
2024-02-18T05:34:06.983Z,84.09
2024-02-18T05:35:09.121Z,83.98
2024-02-18T05:36:06.825Z,84.09
2024-02-18T05:37:06.872Z,83.98
2024-02-18T05:38:06.797Z,83.98
2024-02-18T05:39:06.764Z,83.98
2024-02-18T05:40:06.840Z,84.09
2024-02-18T05:41:06.744Z,83.98
2024-02-18T05:42:06.740Z,83.98
2024-02-18T05:43:06.806Z,83.98
2024-02-18T05:44:06.705Z,83.98
2024-02-18T05:45:06.902Z,83.98
2024-02-18T05:46:06.737Z,83.98
2024-02-18T05:47:06.674Z,83.88
2024-02-18T05:48:06.740Z,83.78
2024-02-18T05:49:06.758Z,83.78
2024-02-18T05:50:06.959Z,83.78
2024-02-18T05:51:06.643Z,83.88
2024-02-18T05:52:06.695Z,83.78
2024-02-18T05:53:06.619Z,83.78
2024-02-18T05:54:06.609Z,83.98
2024-02-18T05:55:06.676Z,83.98
2024-02-18T05:56:06.602Z,83.78
2024-02-18T05:57:06.564Z,83.78
2024-02-18T05:58:06.647Z,83.78
2024-02-18T05:59:06.540Z,83.78
2024-02-18T06:00:06.545Z,83.78
2024-02-18T06:01:06.629Z,83.68
2024-02-18T06:02:06.551Z,83.58
2024-02-18T06:03:06.489Z,83.58
2024-02-18T06:04:06.542Z,83.47
2024-02-18T06:05:06.517Z,83.58
2024-02-18T06:06:06.542Z,83.47
2024-02-18T06:07:06.592Z,83.47
2024-02-18T06:08:06.450Z,83.47
2024-02-18T06:09:06.417Z,83.37
2024-02-18T06:10:06.462Z,83.37
2024-02-18T06:11:06.501Z,83.37
2024-02-18T06:12:06.456Z,83.37
2024-02-18T06:13:06.469Z,83.27
2024-02-18T06:14:06.375Z,83.27
2024-02-18T06:15:06.355Z,83.47
2024-02-18T06:16:06.536Z,83.47
2024-02-18T06:17:06.330Z,83.27
2024-02-18T06:18:06.454Z,83.27
2024-02-18T06:19:06.497Z,83.17
2024-02-18T06:20:06.370Z,83.27
2024-02-18T06:21:06.291Z,83.37
2024-02-18T06:22:06.488Z,83.06
2024-02-18T06:23:06.274Z,83.06
2024-02-18T06:24:06.265Z,83.06
2024-02-18T06:25:06.259Z,83.17
2024-02-18T06:26:06.226Z,83.17
2024-02-18T06:27:06.222Z,83.27
2024-02-18T06:29:06.205Z,83.27
2024-02-18T06:30:06.184Z,83.37
2024-02-18T06:31:06.326Z,83.27
2024-02-18T06:32:06.164Z,83.17
2024-02-18T06:33:06.198Z,83.06
2024-02-18T06:34:06.339Z,82.96
2024-02-18T06:35:06.186Z,82.96
2024-02-18T06:36:06.117Z,82.96
2024-02-18T06:37:06.173Z,83.06
2024-02-18T06:38:06.090Z,83.06
2024-02-18T06:39:06.130Z,83.06
2024-02-18T06:40:06.259Z,82.86
2024-02-18T06:41:06.059Z,82.76
2024-02-18T06:42:06.053Z,82.76
2024-02-18T06:43:06.131Z,82.86
2024-02-18T06:44:06.036Z,82.76
2024-02-18T06:45:06.024Z,82.76
2024-02-18T06:46:07.491Z,82.76
2024-02-18T06:47:06.016Z,82.86
2024-02-18T06:48:06.018Z,82.76
2024-02-18T06:49:05.998Z,82.65
2024-02-18T06:50:06.082Z,82.65
2024-02-18T06:51:05.944Z,82.65
2024-02-18T06:52:06.043Z,82.65
2024-02-18T06:53:05.919Z,82.55
2024-02-18T06:54:05.929Z,82.55
2024-02-18T06:55:06.051Z,82.55
2024-02-18T06:56:05.901Z,82.45
2024-02-18T06:57:05.879Z,82.35
2024-02-18T06:58:05.977Z,82.24
2024-02-18T06:59:05.862Z,82.24
2024-02-18T07:00:05.874Z,82.35
2024-02-18T07:01:05.926Z,82.45
2024-02-18T07:02:05.891Z,82.24
2024-02-18T07:03:05.812Z,82.35
2024-02-18T07:04:05.996Z,82.35
2024-02-18T07:05:05.806Z,82.24
2024-02-18T07:06:05.821Z,82.14
2024-02-18T07:07:05.826Z,82.14
2024-02-18T07:08:05.779Z,82.14
2024-02-18T07:09:13.197Z,82.14
2024-02-18T07:10:05.924Z,82.04
2024-02-18T07:11:05.739Z,82.14
2024-02-18T07:12:05.710Z,82.14
2024-02-18T07:13:05.812Z,82.14
2024-02-18T07:14:05.695Z,82.14
2024-02-18T07:15:05.680Z,82.24
2024-02-18T07:16:05.753Z,82.24
2024-02-18T07:17:05.647Z,82.24
2024-02-18T07:18:05.804Z,82.24
2024-02-18T07:19:05.728Z,82.24
2024-02-18T07:20:05.833Z,82.35
2024-02-18T07:21:05.616Z,82.35
2024-02-18T07:22:06.006Z,82.45
2024-02-18T07:23:05.580Z,82.55
2024-02-18T07:24:05.617Z,82.55
2024-02-18T07:25:05.602Z,82.76
2024-02-18T07:26:05.549Z,82.86
2024-02-18T07:27:05.542Z,83.06
2024-02-18T07:28:05.612Z,82.96
2024-02-18T07:29:05.510Z,83.06
2024-02-18T07:30:05.520Z,83.27
2024-02-18T07:31:05.566Z,83.37
2024-02-18T07:32:05.491Z,83.27
2024-02-18T07:33:05.590Z,83.58
2024-02-18T07:34:05.558Z,83.78
2024-02-18T07:35:05.482Z,83.88
2024-02-18T07:36:05.442Z,83.68
2024-02-18T07:37:05.460Z,83.68
2024-02-18T07:38:05.424Z,83.78
2024-02-18T07:39:05.422Z,83.78
2024-02-18T07:40:05.867Z,83.78
2024-02-18T07:41:05.423Z,84.09
2024-02-18T07:42:05.381Z,84.19
2024-02-18T07:43:05.404Z,84.19
2024-02-18T07:44:05.363Z,84.19
2024-02-18T07:45:05.359Z,84.19
2024-02-18T07:46:05.335Z,84.39
2024-02-18T07:47:05.308Z,84.50
2024-02-18T07:48:05.404Z,84.50
2024-02-18T07:49:05.347Z,84.60
2024-02-18T07:50:05.306Z,84.60
2024-02-18T07:51:05.278Z,84.70
2024-02-18T07:52:05.308Z,84.70
2024-02-18T07:53:05.250Z,84.91
2024-02-18T07:54:05.249Z,85.11
2024-02-18T07:55:05.267Z,85.01
2024-02-18T07:56:05.239Z,85.11
2024-02-18T07:57:05.199Z,85.11
2024-02-18T07:58:05.206Z,85.31
2024-02-18T07:59:05.165Z,85.42
2024-02-18T08:00:05.171Z,85.93
2024-02-18T08:01:05.283Z,86.55
2024-02-18T08:02:05.182Z,86.55
2024-02-18T08:03:05.136Z,86.34
2024-02-18T08:04:05.220Z,86.65
2024-02-18T08:05:05.171Z,86.96
2024-02-18T08:06:05.119Z,86.75
2024-02-18T08:07:05.143Z,86.55
2024-02-18T08:08:05.101Z,86.55
2024-02-18T08:09:05.069Z,86.34
2024-02-18T08:10:05.144Z,86.38
2024-02-18T08:11:05.074Z,86.28
2024-02-18T08:12:05.042Z,86.38
2024-02-18T08:13:05.080Z,86.48
2024-02-18T08:14:05.003Z,86.69
2024-02-18T08:15:04.987Z,86.79
2024-02-18T08:16:05.132Z,86.79
2024-02-18T08:17:04.966Z,86.90
2024-02-18T08:18:05.013Z,86.69
2024-02-18T08:19:05.029Z,86.69
2024-02-18T08:20:04.978Z,86.79
2024-02-18T08:21:04.932Z,86.79
2024-02-18T08:22:05.029Z,86.79
2024-02-18T08:23:04.948Z,86.90
2024-02-18T08:24:04.905Z,87.04
2024-02-18T08:25:05.032Z,86.63
2024-02-18T08:26:04.870Z,86.63
2024-02-18T08:27:04.876Z,86.63
2024-02-18T08:28:04.954Z,86.63
2024-02-18T08:29:04.848Z,86.52
2024-02-18T08:30:04.836Z,86.73
2024-02-18T08:31:04.960Z,86.73
2024-02-18T08:32:04.805Z,86.83
2024-02-18T08:33:04.820Z,86.73
2024-02-18T08:34:04.914Z,86.93
2024-02-18T08:35:05.060Z,87.04
2024-02-18T08:36:04.777Z,87.04
2024-02-18T08:37:04.853Z,87.14
2024-02-18T08:38:04.741Z,87.14
2024-02-18T08:39:04.714Z,86.93
2024-02-18T08:40:04.745Z,86.69
2024-02-18T08:41:04.723Z,86.48
2024-02-18T08:42:04.684Z,86.32
2024-02-18T08:43:04.685Z,86.01
2024-02-18T08:44:04.659Z,85.97
2024-02-18T08:45:04.645Z,86.28
2024-02-18T08:46:04.701Z,86.38
2024-02-18T08:47:04.619Z,86.28
2024-02-18T08:48:04.691Z,86.38
2024-02-18T08:50:04.798Z,86.18
2024-02-18T08:51:04.593Z,86.07
2024-02-18T08:52:04.629Z,86.07
2024-02-18T08:53:04.548Z,85.87
2024-02-18T08:54:04.545Z,85.66
2024-02-18T08:55:04.589Z,85.77
2024-02-18T08:56:04.575Z,85.97
2024-02-18T08:57:04.509Z,86.11
2024-02-18T08:58:04.608Z,85.91
2024-02-18T08:59:04.479Z,85.77
2024-02-18T09:00:04.472Z,85.80
2024-02-18T09:01:04.546Z,85.87
2024-02-18T09:02:07.076Z,86.22
2024-02-18T09:03:04.470Z,86.18
2024-02-18T09:04:04.638Z,86.63
2024-02-18T09:05:04.491Z,86.58
2024-02-18T09:06:04.435Z,86.63
2024-02-18T09:07:04.457Z,86.73
2024-02-18T09:08:04.400Z,86.79
2024-02-18T09:09:04.364Z,86.79
2024-02-18T09:10:04.479Z,86.99
2024-02-18T09:11:04.387Z,86.73
2024-02-18T09:12:04.337Z,86.42
2024-02-18T09:13:04.392Z,86.63
2024-02-18T09:14:04.309Z,86.63
2024-02-18T09:15:04.301Z,86.63
2024-02-18T09:16:04.316Z,86.83
2024-02-18T09:17:04.277Z,86.69
2024-02-18T09:18:04.412Z,86.69
2024-02-18T09:19:04.322Z,86.58
2024-02-18T09:20:04.320Z,86.58
2024-02-18T09:21:04.236Z,86.58
2024-02-18T09:22:04.238Z,86.58
2024-02-18T09:23:04.230Z,86.48
2024-02-18T09:24:04.228Z,86.48
2024-02-18T09:25:04.216Z,86.48
2024-02-18T09:26:04.178Z,86.38
2024-02-18T09:27:04.171Z,86.18
2024-02-18T09:28:04.262Z,85.97
2024-02-18T09:29:04.148Z,85.66
2024-02-18T09:30:04.147Z,85.66
2024-02-18T09:31:04.225Z,85.87
2024-02-18T09:32:04.135Z,85.56
2024-02-18T09:33:04.126Z,85.15
2024-02-18T09:34:04.355Z,85.46
2024-02-18T09:35:04.474Z,85.36
2024-02-18T09:36:04.062Z,85.25
2024-02-18T09:37:04.222Z,85.05
2024-02-18T09:38:04.057Z,84.74
2024-02-18T09:39:04.077Z,84.33
2024-02-18T09:40:04.146Z,84.03
2024-02-18T09:41:04.020Z,84.03
2024-02-18T09:42:03.997Z,83.92
2024-02-18T09:43:04.060Z,83.98
2024-02-18T09:44:04.072Z,83.98
2024-02-18T09:45:03.998Z,83.78
2024-02-18T09:46:03.993Z,83.37
2024-02-18T09:47:03.961Z,83.58
2024-02-18T09:48:04.026Z,83.47
2024-02-18T09:49:04.015Z,83.37
2024-02-18T09:50:04.008Z,83.27
2024-02-18T09:51:03.893Z,83.06
2024-02-18T09:52:03.946Z,82.96
2024-02-18T09:53:03.899Z,82.65
2024-02-18T09:54:03.861Z,82.35
2024-02-18T09:55:03.958Z,82.55
2024-02-18T09:56:03.861Z,82.45
2024-02-18T09:57:03.840Z,82.35
2024-02-18T09:58:04.062Z,82.24
2024-02-18T09:59:03.793Z,81.63
2024-02-18T10:00:03.800Z,82.35
2024-02-18T10:01:03.871Z,82.45
2024-02-18T10:02:03.790Z,82.04
2024-02-18T10:03:03.767Z,81.84
2024-02-18T10:04:03.881Z,81.84
2024-02-18T10:05:03.816Z,81.73
2024-02-18T10:06:03.775Z,81.94
2024-02-18T10:07:03.761Z,82.14
2024-02-18T10:08:03.761Z,82.35
2024-02-18T10:09:03.703Z,81.94
2024-02-18T10:10:03.731Z,81.73
2024-02-18T10:11:03.750Z,81.43
2024-02-18T10:12:03.650Z,81.73
2024-02-18T10:13:03.838Z,81.63
2024-02-18T10:14:03.631Z,81.63
2024-02-18T10:15:03.630Z,81.63
2024-02-18T10:16:03.672Z,81.63
2024-02-18T10:17:03.630Z,81.63
2024-02-18T10:18:03.930Z,81.63
2024-02-18T10:19:03.672Z,81.52
2024-02-18T10:20:03.814Z,81.43
2024-02-18T10:21:03.551Z,81.32
2024-02-18T10:22:03.675Z,81.22
2024-02-18T10:23:03.538Z,81.01
2024-02-18T10:24:03.520Z,81.01
2024-02-18T10:25:03.556Z,80.91
2024-02-18T10:26:03.504Z,81.12
2024-02-18T10:27:03.522Z,81.01
2024-02-18T10:28:03.588Z,81.12
2024-02-18T10:29:03.464Z,81.22
2024-02-18T10:30:03.449Z,81.22
2024-02-18T10:31:03.504Z,81.22
2024-02-18T10:32:03.420Z,81.52
2024-02-18T10:33:03.501Z,81.43
2024-02-18T10:34:03.637Z,81.63
2024-02-18T10:35:03.641Z,81.52
2024-02-18T10:36:03.529Z,81.84
2024-02-18T10:37:03.428Z,81.63
2024-02-18T10:38:03.356Z,81.73
2024-02-18T10:39:03.354Z,81.43
2024-02-18T10:40:03.469Z,81.43
2024-02-18T10:41:03.317Z,81.32
2024-02-18T10:42:03.317Z,81.43
2024-02-18T10:43:03.462Z,81.94
2024-02-18T10:44:03.307Z,81.63
2024-02-18T10:45:03.297Z,81.52
2024-02-18T10:46:03.369Z,81.84
2024-02-18T10:47:03.250Z,81.73
2024-02-18T10:48:03.266Z,81.94
2024-02-18T10:49:03.349Z,82.24
2024-02-18T10:50:03.315Z,82.14
2024-02-18T10:51:03.229Z,81.94
2024-02-18T10:52:03.243Z,81.94
2024-02-18T10:53:03.208Z,82.04
2024-02-18T10:54:03.177Z,82.04
2024-02-18T10:55:03.351Z,82.14
2024-02-18T10:56:03.168Z,82.14
2024-02-18T10:57:03.150Z,82.04
2024-02-18T10:58:03.174Z,82.04
2024-02-18T10:59:03.152Z,82.24
2024-02-18T11:00:03.133Z,82.14
2024-02-18T11:01:03.220Z,81.63
2024-02-18T11:02:03.089Z,82.04
2024-02-18T11:03:03.093Z,82.35
2024-02-18T11:04:05.006Z,82.55
2024-02-18T11:05:03.078Z,82.65
2024-02-18T11:06:03.263Z,82.55
2024-02-18T11:07:03.202Z,82.35
2024-02-18T11:08:03.248Z,82.35
2024-02-18T11:09:03.006Z,82.04
2024-02-18T11:10:03.060Z,82.14
2024-02-18T11:11:03.028Z,82.04
2024-02-18T11:12:02.968Z,81.94
2024-02-18T11:13:03.018Z,81.94
2024-02-18T11:14:02.954Z,81.94
2024-02-18T11:15:02.936Z,81.94
2024-02-18T11:16:02.996Z,81.94
2024-02-18T11:17:02.915Z,81.94
2024-02-18T11:18:03.003Z,82.04
2024-02-18T11:19:02.968Z,82.14
2024-02-18T11:20:02.961Z,82.14
2024-02-18T11:21:02.923Z,82.24
2024-02-18T11:22:02.934Z,82.35
2024-02-18T11:23:02.859Z,82.55
2024-02-18T11:24:02.835Z,82.45
2024-02-18T11:25:02.896Z,82.45
2024-02-18T11:26:02.840Z,82.35
2024-02-18T11:27:02.844Z,82.35
2024-02-18T11:28:02.807Z,82.45
2024-02-18T11:29:02.806Z,82.55
2024-02-18T11:30:02.761Z,82.86
2024-02-18T11:31:02.805Z,82.96
2024-02-18T11:32:02.737Z,82.45
2024-02-18T11:33:02.835Z,82.55
2024-02-18T11:34:02.866Z,82.65
2024-02-18T11:35:02.794Z,82.76
2024-02-18T11:36:02.697Z,82.86
2024-02-18T11:37:02.735Z,82.35
2024-02-18T11:38:02.715Z,82.45
2024-02-18T11:39:02.664Z,82.76
2024-02-18T11:40:02.694Z,82.76
2024-02-18T11:41:02.637Z,82.76
2024-02-18T11:42:02.629Z,82.65
2024-02-18T11:43:02.708Z,82.96
2024-02-18T11:44:02.601Z,82.96
2024-02-18T11:45:02.593Z,82.76
2024-02-18T11:46:02.595Z,82.55
2024-02-18T11:47:02.575Z,82.41
2024-02-18T11:48:02.628Z,82.62
2024-02-18T11:49:02.626Z,82.41
2024-02-18T11:50:02.593Z,82.51
2024-02-18T11:51:02.537Z,82.71
2024-02-18T11:52:02.604Z,83.37
2024-02-18T11:53:02.533Z,83.17
2024-02-18T11:54:02.510Z,82.86
2024-02-18T11:55:02.522Z,83.17
2024-02-18T11:56:02.466Z,83.06
2024-02-18T11:57:02.467Z,83.44
2024-02-18T11:58:02.529Z,83.74
2024-02-18T11:59:02.511Z,84.05
2024-02-18T12:00:02.509Z,84.05
2024-02-18T12:01:02.524Z,84.25
2024-02-18T12:02:02.447Z,83.44
2024-02-18T12:03:02.445Z,84.05
2024-02-18T12:04:02.417Z,84.15
2024-02-18T12:05:02.482Z,83.95
2024-02-18T12:06:02.360Z,84.15
2024-02-18T12:07:02.393Z,84.05
2024-02-18T12:08:02.387Z,84.46
2024-02-18T12:09:02.325Z,84.36
2024-02-18T12:10:02.423Z,84.46
2024-02-18T12:11:02.377Z,84.22
2024-02-18T12:12:02.291Z,83.74
2024-02-18T12:13:02.351Z,84.25
2024-02-18T12:14:02.282Z,84.36
2024-02-18T12:15:02.256Z,84.05
2024-02-18T12:16:02.308Z,84.36
2024-02-18T12:17:02.242Z,84.56
2024-02-18T12:18:02.372Z,84.77
2024-02-18T12:19:02.379Z,84.97
2024-02-18T12:20:02.548Z,84.77
2024-02-18T12:21:02.187Z,84.66
2024-02-18T12:22:02.221Z,84.52
2024-02-18T12:23:02.187Z,84.63
2024-02-18T12:24:02.150Z,84.72
2024-02-18T12:25:02.187Z,84.11
2024-02-18T12:26:02.125Z,83.91
2024-02-18T12:27:02.131Z,84.11
2024-02-18T12:28:02.177Z,84.11
2024-02-18T12:29:02.113Z,84.52
2024-02-18T12:30:02.081Z,84.42
2024-02-18T12:31:02.107Z,84.63
2024-02-18T12:32:02.060Z,84.72
2024-02-18T12:33:02.126Z,84.63
2024-02-18T12:34:02.209Z,84.42
2024-02-18T12:35:02.219Z,84.42
2024-02-18T12:36:02.016Z,84.22
2024-02-18T12:37:02.067Z,84.11
2024-02-18T12:38:02.024Z,84.31
2024-02-18T12:39:01.987Z,84.42
2024-02-18T12:40:02.170Z,84.72
2024-02-18T12:41:01.964Z,84.83
2024-02-18T12:42:01.972Z,84.56
2024-02-18T12:43:25.716Z,84.66
2024-02-18T12:44:41.137Z,84.87
2024-02-18T12:45:38.901Z,84.97
2024-02-18T12:46:07.006Z,84.87
2024-02-18T12:47:02.976Z,84.97
2024-02-18T12:48:01.984Z,85.17
2024-02-18T12:49:02.070Z,84.97
2024-02-18T12:50:02.008Z,84.97
2024-02-18T12:51:01.887Z,84.46
2024-02-18T12:52:01.837Z,84.77
2024-02-18T12:53:01.842Z,84.87
2024-02-18T12:54:01.817Z,84.97